createdAt,value
2023-03-29T06:52:07.250Z,58.02
2023-03-29T06:53:07.170Z,59.24
2023-03-29T06:54:07.063Z,64.74
2023-03-29T06:55:08.268Z,59.50
2023-03-29T06:56:08.483Z,58.82
2023-03-29T06:57:08.353Z,58.69
2023-03-29T06:58:08.279Z,58.78
2023-03-29T06:59:08.251Z,57.79
2023-03-29T07:00:08.286Z,58.00
2023-03-29T07:01:08.202Z,58.43
2023-03-29T07:02:08.746Z,58.63
2023-03-29T07:03:08.355Z,59.15
2023-03-29T07:04:08.441Z,58.24
2023-03-29T07:05:08.304Z,56.58
2023-03-29T07:06:08.337Z,58.00
2023-03-29T07:07:08.397Z,60.56
2023-03-29T07:08:08.490Z,61.30
2023-03-29T07:09:08.299Z,62.50
2023-03-29T07:10:08.257Z,62.62
2023-03-29T07:11:08.259Z,67.65
2023-03-29T07:12:09.445Z,60.73
2023-03-29T07:13:08.288Z,61.72
2023-03-29T07:14:08.139Z,60.95
2023-03-29T07:15:08.161Z,60.21
2023-03-29T07:16:08.128Z,57.65
2023-03-29T07:17:08.283Z,55.99
2023-03-29T07:18:08.286Z,60.17
2023-03-29T07:19:08.233Z,59.27
2023-03-29T07:20:08.224Z,59.62
2023-03-29T07:21:08.366Z,60.77
2023-03-29T07:22:08.199Z,61.18
2023-03-29T07:23:08.279Z,58.21
2023-03-29T07:24:08.176Z,59.30
2023-03-29T07:25:08.207Z,68.28
2023-03-29T07:26:08.434Z,64.70
2023-03-29T07:27:08.175Z,59.67
2023-03-29T07:28:08.167Z,57.98
2023-03-29T07:29:08.327Z,60.32
2023-03-29T07:30:08.138Z,57.51
2023-03-29T07:31:08.389Z,57.29
2023-03-29T07:32:08.069Z,64.20
2023-03-29T07:33:08.129Z,62.46
2023-03-29T07:34:08.107Z,60.93
2023-03-29T07:35:07.993Z,62.34
2023-03-29T07:36:08.093Z,63.85
2023-03-29T07:37:07.945Z,66.19
2023-03-29T07:38:07.989Z,63.13
2023-03-29T07:39:07.993Z,62.12
2023-03-29T07:40:08.113Z,59.62
2023-03-29T07:41:08.243Z,60.57
2023-03-29T07:42:08.042Z,66.01
2023-03-29T07:43:08.391Z,59.97
2023-03-29T07:44:08.061Z,60.63
2023-03-29T07:45:09.165Z,59.57
2023-03-29T07:46:08.215Z,57.69
2023-03-29T07:47:07.978Z,59.81
2023-03-29T07:48:08.050Z,62.94
2023-03-29T07:49:08.035Z,56.95
2023-03-29T07:50:08.200Z,58.38
2023-03-29T07:51:07.978Z,60.95
2023-03-29T07:52:07.980Z,58.23
2023-03-29T07:53:07.877Z,59.12
2023-03-29T07:54:07.879Z,61.22
2023-03-29T07:55:07.942Z,58.31
2023-03-29T07:56:08.111Z,58.18
2023-03-29T07:57:07.901Z,60.68
2023-03-29T07:58:07.817Z,59.55
2023-03-29T07:59:07.973Z,60.30
2023-03-29T08:00:07.928Z,57.91
2023-03-29T08:01:08.071Z,56.21
2023-03-29T08:02:07.914Z,58.38
2023-03-29T08:03:07.935Z,58.97
2023-03-29T08:04:08.091Z,58.63
2023-03-29T08:05:07.977Z,60.82
2023-03-29T08:06:07.863Z,60.04
2023-03-29T08:07:07.923Z,59.98
2023-03-29T08:08:07.970Z,58.76
2023-03-29T08:09:08.040Z,57.56
2023-03-29T08:10:08.120Z,58.44
2023-03-29T08:11:07.918Z,57.11
2023-03-29T08:12:07.923Z,59.52
2023-03-29T08:13:07.915Z,59.34
2023-03-29T08:14:07.785Z,58.32
2023-03-29T08:15:07.765Z,57.43
2023-03-29T08:16:08.737Z,58.15
2023-03-29T08:17:07.759Z,57.59
2023-03-29T08:18:07.937Z,58.65
2023-03-29T08:19:07.672Z,57.82
2023-03-29T08:20:07.789Z,57.56
2023-03-29T08:21:07.747Z,59.03
2023-03-29T08:22:08.094Z,58.01
2023-03-29T08:23:07.837Z,59.34
2023-03-29T08:24:07.732Z,56.17
2023-03-29T08:25:07.709Z,58.17
2023-03-29T08:26:07.755Z,59.07
2023-03-29T08:27:07.667Z,59.94
2023-03-29T08:28:07.744Z,61.20
2023-03-29T08:29:07.862Z,62.28
2023-03-29T08:30:07.758Z,65.27
2023-03-29T08:31:08.495Z,58.09
2023-03-29T08:32:07.575Z,60.19
2023-03-29T08:33:07.632Z,58.58
2023-03-29T08:34:07.593Z,59.29
2023-03-29T08:35:07.571Z,59.35
2023-03-29T08:36:07.787Z,58.32
2023-03-29T08:37:07.571Z,57.49
2023-03-29T08:38:07.534Z,58.53
2023-03-29T08:39:07.560Z,59.48
2023-03-29T08:40:07.539Z,57.13
2023-03-29T08:41:07.603Z,57.44
2023-03-29T08:42:07.677Z,55.67
2023-03-29T08:43:07.632Z,59.51
2023-03-29T08:44:07.645Z,59.84
2023-03-29T08:45:07.638Z,58.20
2023-03-29T08:46:07.627Z,58.54
2023-03-29T08:47:07.525Z,59.48
2023-03-29T08:48:07.985Z,58.60
2023-03-29T08:49:07.566Z,58.06
2023-03-29T08:50:07.580Z,59.00
2023-03-29T08:51:09.460Z,58.29
2023-03-29T08:52:08.651Z,57.94
2023-03-29T08:53:07.599Z,56.66
2023-03-29T08:54:07.495Z,59.38
2023-03-29T08:55:07.445Z,61.18
2023-03-29T08:56:07.827Z,63.70
2023-03-29T08:57:07.645Z,63.97
2023-03-29T08:58:07.433Z,59.73
2023-03-29T08:59:07.428Z,58.11
2023-03-29T09:00:07.404Z,60.53
2023-03-29T09:01:07.557Z,61.13
2023-03-29T09:02:07.804Z,70.29
2023-03-29T09:03:07.456Z,60.11
2023-03-29T09:10:48.120Z,60.69
2023-03-29T09:11:47.994Z,65.22
2023-03-29T09:12:48.026Z,61.25
2023-03-29T09:13:48.182Z,60.60
2023-03-29T09:14:48.046Z,59.43
2023-03-29T09:15:48.182Z,65.81
2023-03-29T09:16:48.046Z,61.30
2023-03-29T09:17:49.609Z,64.50
2023-03-29T09:18:49.078Z,59.14
2023-03-29T09:19:49.145Z,65.83
2023-03-29T09:20:48.014Z,66.47
2023-03-29T09:21:48.029Z,59.47
2023-03-29T09:22:48.010Z,58.95
2023-03-29T09:23:48.402Z,64.68
2023-03-29T09:24:48.142Z,66.33
2023-03-29T09:25:53.363Z,65.11
2023-03-29T09:26:49.973Z,66.67
2023-03-29T09:27:47.864Z,62.98
2023-03-29T09:28:47.916Z,62.52
2023-03-29T09:29:47.890Z,63.06
2023-03-29T09:30:47.932Z,61.55
2023-03-29T09:31:47.993Z,60.00
2023-03-29T09:32:47.950Z,59.93
2023-03-29T09:33:47.820Z,59.78
2023-03-29T09:34:47.858Z,60.04
2023-03-29T09:35:47.944Z,61.61
2023-03-29T09:36:48.088Z,64.98
2023-03-29T09:37:47.916Z,63.57
2023-03-29T09:38:48.049Z,59.92
2023-03-29T09:39:48.216Z,59.14
2023-03-29T09:40:47.906Z,59.27
2023-03-29T09:41:47.968Z,58.12
2023-03-29T09:42:47.909Z,58.09
2023-03-29T09:43:48.037Z,58.80
2023-03-29T09:44:48.199Z,59.03
2023-03-29T09:45:47.971Z,58.75
2023-03-29T09:46:47.739Z,58.80
2023-03-29T09:47:47.867Z,57.63
2023-03-29T09:48:47.718Z,58.58
2023-03-29T09:49:47.844Z,59.24
2023-03-29T09:50:47.835Z,61.33
2023-03-29T09:51:48.088Z,63.81
2023-03-29T09:52:47.890Z,58.23
2023-03-29T09:53:47.947Z,57.35
2023-03-29T09:54:47.794Z,58.22
2023-03-29T09:55:49.093Z,59.05
2023-03-29T09:56:49.089Z,63.05
2023-03-29T09:57:47.792Z,67.54
2023-03-29T09:58:48.134Z,57.08
2023-03-29T09:59:47.804Z,56.37
2023-03-29T10:00:47.754Z,55.91
2023-03-29T10:01:47.792Z,57.72
2023-03-29T10:02:47.956Z,56.66
2023-03-29T10:03:47.702Z,56.13
2023-03-29T10:04:47.728Z,56.03
2023-03-29T10:05:47.611Z,56.13
2023-03-29T10:06:47.652Z,56.80
2023-03-29T10:07:47.616Z,56.92
2023-03-29T10:08:47.612Z,55.08
2023-03-29T10:09:47.783Z,54.98
2023-03-29T10:10:47.715Z,56.02
2023-03-29T10:11:47.698Z,55.56
2023-03-29T10:12:48.004Z,58.39
2023-03-29T10:13:47.619Z,56.48
2023-03-29T10:14:47.861Z,56.09
2023-03-29T10:15:47.651Z,56.45
2023-03-29T10:16:48.000Z,58.58
2023-03-29T10:17:47.633Z,55.86
2023-03-29T10:18:47.799Z,55.88
2023-03-29T10:19:47.620Z,56.33
2023-03-29T10:20:47.651Z,58.26
2023-03-29T10:21:47.533Z,58.37
2023-03-29T10:22:47.504Z,56.74
2023-03-29T10:23:47.618Z,56.14
2023-03-29T10:24:47.464Z,55.65
2023-03-29T10:25:47.542Z,54.91
2023-03-29T10:26:47.539Z,53.91
2023-03-29T10:27:47.544Z,55.12
2023-03-29T10:28:47.584Z,55.90
2023-03-29T10:29:47.626Z,57.01
2023-03-29T10:30:47.563Z,57.37
2023-03-29T10:31:47.670Z,58.00
2023-03-29T10:32:47.572Z,58.15
2023-03-29T10:33:47.624Z,58.93
2023-03-29T10:34:47.560Z,59.38
2023-03-29T10:35:47.620Z,59.03
2023-03-29T10:36:47.851Z,57.61
2023-03-29T10:37:47.629Z,58.98
2023-03-29T10:38:47.617Z,58.49
2023-03-29T10:39:47.449Z,57.10
2023-03-29T10:40:47.547Z,56.72
2023-03-29T10:41:48.596Z,58.10
2023-03-29T10:42:47.389Z,59.37
2023-03-29T10:43:47.505Z,56.55
2023-03-29T10:44:47.417Z,54.49
2023-03-29T10:45:47.616Z,56.66
2023-03-29T10:46:47.497Z,55.54
2023-03-29T10:47:47.486Z,56.95
2023-03-29T10:48:47.722Z,55.62
2023-03-29T10:49:47.946Z,56.01
2023-03-29T10:50:47.436Z,54.69
2023-03-29T10:51:47.413Z,56.68
2023-03-29T10:52:47.570Z,56.53
2023-03-29T10:53:47.305Z,54.35
2023-03-29T10:54:47.310Z,52.99
2023-03-29T10:55:47.590Z,53.46
2023-03-29T10:56:47.392Z,55.39
2023-03-29T10:57:47.306Z,56.62
2023-03-29T10:58:47.745Z,56.41
2023-03-29T10:59:47.379Z,56.01
2023-03-29T11:00:47.390Z,56.71
2023-03-29T11:01:47.752Z,55.21
2023-03-29T11:02:47.468Z,55.21
2023-03-29T11:03:47.570Z,56.79
2023-03-29T11:04:47.304Z,56.69
2023-03-29T11:05:47.340Z,58.65
2023-03-29T11:06:47.410Z,55.78
2023-03-29T11:07:47.427Z,55.83
2023-03-29T11:08:47.328Z,56.16
2023-03-29T11:09:47.686Z,56.61
2023-03-29T11:10:47.346Z,57.00
2023-03-29T11:11:47.202Z,56.52
2023-03-29T11:12:47.146Z,56.77
2023-03-29T11:13:47.142Z,59.16
2023-03-29T11:14:47.354Z,59.62
2023-03-29T11:15:47.582Z,56.37
2023-03-29T11:16:47.692Z,58.08
2023-03-29T11:17:47.445Z,58.95
2023-03-29T11:18:47.356Z,56.64
2023-03-29T11:19:47.979Z,57.94
2023-03-29T11:20:47.633Z,58.95
2023-03-29T11:21:47.538Z,58.21
2023-03-29T11:22:47.222Z,59.75
2023-03-29T11:23:47.391Z,58.02
2023-03-29T11:24:47.133Z,58.20
2023-03-29T11:25:47.138Z,59.29
2023-03-29T11:26:47.087Z,60.65
2023-03-29T11:27:47.129Z,60.46
2023-03-29T11:28:47.045Z,60.24
2023-03-29T11:29:47.050Z,59.36
2023-03-29T11:30:47.196Z,60.70
2023-03-29T11:31:47.277Z,58.38
2023-03-29T11:32:47.295Z,58.00
2023-03-29T11:33:47.271Z,56.49
2023-03-29T11:34:47.148Z,57.54
2023-03-29T11:35:47.226Z,57.41
2023-03-29T11:36:47.140Z,56.63
2023-03-29T11:37:47.277Z,56.96
2023-03-29T11:38:47.124Z,57.93
2023-03-29T11:39:47.454Z,58.92
2023-03-29T11:40:47.255Z,56.15
2023-03-29T11:41:47.526Z,58.90
2023-03-29T11:42:47.173Z,56.93
2023-03-29T11:43:46.984Z,58.62
2023-03-29T11:44:47.032Z,57.60
2023-03-29T11:45:47.285Z,56.85
2023-03-29T11:46:47.067Z,55.49
2023-03-29T11:47:47.055Z,57.08
2023-03-29T11:48:46.920Z,56.62
2023-03-29T11:49:46.920Z,56.61
2023-03-29T11:50:46.959Z,54.22
2023-03-29T11:51:46.981Z,54.79
2023-03-29T11:52:47.029Z,57.31
2023-03-29T11:53:46.991Z,57.61
2023-03-29T11:54:46.914Z,57.01
2023-03-29T11:55:46.943Z,56.32
2023-03-29T11:56:47.318Z,57.64
2023-03-29T11:57:47.026Z,57.63
2023-03-29T11:58:46.897Z,57.04
2023-03-29T11:59:46.990Z,56.38
2023-03-29T12:00:46.957Z,58.50
2023-03-29T12:01:47.037Z,58.43
2023-03-29T12:02:47.090Z,58.79
2023-03-29T12:03:47.505Z,58.30
2023-03-29T12:04:46.827Z,57.16
2023-03-29T12:05:46.733Z,55.75
2023-03-29T12:06:46.903Z,55.79
2023-03-29T12:07:46.825Z,57.11
2023-03-29T12:08:47.241Z,58.59
2023-03-29T12:09:47.001Z,57.76
2023-03-29T12:10:46.805Z,58.55
2023-03-29T12:11:47.327Z,60.01
2023-03-29T12:12:46.849Z,60.57
2023-03-29T12:13:46.905Z,60.24
2023-03-29T12:14:46.881Z,57.31
2023-03-29T12:15:46.791Z,57.69
2023-03-29T12:16:46.969Z,59.04
2023-03-29T12:17:46.899Z,59.23
2023-03-29T12:18:46.713Z,59.06
2023-03-29T12:19:46.804Z,56.98
2023-03-29T12:20:46.850Z,58.31
2023-03-29T12:21:46.677Z,57.21
2023-03-29T12:22:46.690Z,57.76
2023-03-29T12:23:46.634Z,58.69
2023-03-29T12:24:46.799Z,57.47
2023-03-29T12:25:46.725Z,58.71
2023-03-29T12:26:46.880Z,56.88
2023-03-29T12:27:46.737Z,57.42
2023-03-29T12:28:46.830Z,59.92
2023-03-29T12:29:46.770Z,57.62
2023-03-29T12:30:47.025Z,56.28
2023-03-29T12:31:46.758Z,57.21
2023-03-29T12:32:46.863Z,58.71
2023-03-29T12:33:47.013Z,57.52
2023-03-29T12:34:46.944Z,61.42
2023-03-29T12:35:46.784Z,58.85
2023-03-29T12:36:46.581Z,57.67
2023-03-29T12:37:46.588Z,57.35
2023-03-29T12:38:46.985Z,59.42
2023-03-29T12:39:46.850Z,59.31
2023-03-29T12:40:46.730Z,58.77
2023-03-29T12:41:46.709Z,58.94
2023-03-29T12:42:46.767Z,59.81
2023-03-29T12:43:46.649Z,59.05
2023-03-29T12:44:46.610Z,60.84
2023-03-29T12:45:47.987Z,60.67
2023-03-29T12:46:47.419Z,61.62
2023-03-29T12:47:46.840Z,60.23
2023-03-29T12:48:46.657Z,62.12
2023-03-29T12:49:46.629Z,62.28
2023-03-29T12:50:47.074Z,61.44
2023-03-29T12:51:46.480Z,60.94
2023-03-29T12:52:46.510Z,62.08
2023-03-29T12:53:46.707Z,61.26
2023-03-29T12:54:46.455Z,59.29
2023-03-29T12:55:46.470Z,59.98
2023-03-29T12:56:46.776Z,60.17
2023-03-29T12:57:46.498Z,60.94
2023-03-29T12:58:46.784Z,60.50
2023-03-29T12:59:46.514Z,59.91
2023-03-29T13:00:47.131Z,59.08
2023-03-29T13:01:47.389Z,60.15
2023-03-29T13:02:46.435Z,59.01
2023-03-29T13:03:47.879Z,60.12
2023-03-29T13:04:46.699Z,60.11
2023-03-29T13:05:46.542Z,61.02
2023-03-29T13:06:46.457Z,60.13
2023-03-29T13:07:46.645Z,58.37
2023-03-29T13:08:46.655Z,59.39
2023-03-29T13:09:46.493Z,60.94
2023-03-29T13:10:46.370Z,60.74
2023-03-29T13:11:46.348Z,58.47
2023-03-29T13:12:47.464Z,59.20
2023-03-29T13:13:46.278Z,58.12
2023-03-29T13:14:46.512Z,59.34
2023-03-29T13:15:46.491Z,58.14
2023-03-29T13:16:46.513Z,58.51
2023-03-29T13:17:46.429Z,58.96
2023-03-29T13:18:46.547Z,58.05
2023-03-29T13:19:46.417Z,58.63
2023-03-29T13:20:46.421Z,59.29
2023-03-29T13:21:46.518Z,58.98
2023-03-29T13:22:46.374Z,58.60
2023-03-29T13:23:46.266Z,58.87
2023-03-29T13:24:46.248Z,57.29
2023-03-29T13:25:46.748Z,60.27
2023-03-29T13:26:46.308Z,59.05
2023-03-29T13:27:46.239Z,57.81
2023-03-29T13:28:46.226Z,57.62
2023-03-29T13:29:46.207Z,58.58
2023-03-29T13:30:46.587Z,58.63
2023-03-29T13:31:46.319Z,57.76
2023-03-29T13:32:46.629Z,59.74
2023-03-29T13:33:46.423Z,59.39
2023-03-29T13:34:46.243Z,57.28
2023-03-29T13:35:46.297Z,57.36
2023-03-29T13:36:46.299Z,56.89
2023-03-29T13:37:46.315Z,60.14
2023-03-29T13:38:46.285Z,58.90
2023-03-29T13:39:46.608Z,57.33
2023-03-29T13:40:46.208Z,57.47
2023-03-29T13:41:46.553Z,58.83
2023-03-29T13:42:47.228Z,58.55
2023-03-29T13:43:47.253Z,60.34
2023-03-29T13:44:46.139Z,60.31
2023-03-29T13:45:46.187Z,58.66
2023-03-29T13:46:46.317Z,59.84
2023-03-29T13:47:58.333Z,59.01
2023-03-29T13:48:48.092Z,57.91
2023-03-29T13:49:46.140Z,59.91
2023-03-29T13:50:46.131Z,58.38
2023-03-29T13:51:46.158Z,58.36
2023-03-29T13:52:46.475Z,56.57
2023-03-29T13:53:46.185Z,57.43
